sensor_id;sensor_type;location;lat;lon;timestamp;temperature;humidity
17202;DHT22;8717;53.588;10.176;2023-05-21T00:01:15;11.40;99.90
17202;DHT22;8717;53.588;10.176;2023-05-21T00:03:42;11.40;99.90
17202;DHT22;8717;53.588;10.176;2023-05-21T00:06:10;11.30;99.90
17202;DHT22;8717;53.588;10.176;2023-05-21T00:08:39;11.30;99.90
17202;DHT22;8717;53.588;10.176;2023-05-21T00:11:06;11.30;99.90
17202;DHT22;8717;53.588;10.176;2023-05-21T00:13:33;11.20;99.90
17202;DHT22;8717;53.588;10.176;2023-05-21T00:16:02;11.20;99.90
17202;DHT22;8717;53.588;10.176;2023-05-21T00:18:28;11.20;99.90
17202;DHT22;8717;53.588;10.176;2023-05-21T00:20:56;11.10;99.90
17202;DHT22;8717;53.588;10.176;2023-05-21T00:23:23;11.10;99.90
17202;DHT22;8717;53.588;10.176;2023-05-21T00:25:51;11.00;99.90
17202;DHT22;8717;53.588;10.176;2023-05-21T00:28:17;11.00;99.90
17202;DHT22;8717;53.588;10.176;2023-05-21T00:30:44;11.00;99.90
17202;DHT22;8717;53.588;10.176;2023-05-21T00:33:13;10.90;99.90
17202;DHT22;8717;53.588;10.176;2023-05-21T00:35:40;10.90;99.90
17202;DHT22;8717;53.588;10.176;2023-05-21T00:38:07;10.80;99.90
17202;DHT22;8717;53.588;10.176;2023-05-21T00:40:35;10.80;99.90
17202;DHT22;8717;53.588;10.176;2023-05-21T00:43:02;10.80;99.90
17202;DHT22;8717;53.588;10.176;2023-05-21T00:45:29;10.70;99.90
17202;DHT22;8717;53.588;10.176;2023-05-21T00:47:55;10.80;99.90
17202;DHT22;8717;53.588;10.176;2023-05-21T00:50:24;10.70;99.90
17202;DHT22;8717;53.588;10.176;2023-05-21T00:52:51;10.70;99.90
17202;DHT22;8717;53.588;10.176;2023-05-21T00:55:18;10.70;99.90
17202;DHT22;8717;53.588;10.176;2023-05-21T00:57:45;10.60;99.90
17202;DHT22;8717;53.588;10.176;2023-05-21T01:00:14;10.60;99.90
17202;DHT22;8717;53.588;10.176;2023-05-21T01:02:41;10.60;99.90
17202;DHT22;8717;53.588;10.176;2023-05-21T01:05:09;10.60;99.90
17202;DHT22;8717;53.588;10.176;2023-05-21T01:07:38;10.50;99.90
17202;DHT22;8717;53.588;10.176;2023-05-21T01:10:08;10.50;99.90
17202;DHT22;8717;53.588;10.176;2023-05-21T01:12:37;10.50;99.90
17202;DHT22;8717;53.588;10.176;2023-05-21T01:15:06;10.50;99.90
17202;DHT22;8717;53.588;10.176;2023-05-21T01:17:33;10.50;99.90
17202;DHT22;8717;53.588;10.176;2023-05-21T01:20:00;10.50;99.90
17202;DHT22;8717;53.588;10.176;2023-05-21T01:22:31;10.50;99.90
17202;DHT22;8717;53.588;10.176;2023-05-21T01:25:02;10.50;99.90
17202;DHT22;8717;53.588;10.176;2023-05-21T01:27:29;10.50;99.90
17202;DHT22;8717;53.588;10.176;2023-05-21T01:29:56;10.50;99.90
17202;DHT22;8717;53.588;10.176;2023-05-21T01:32:26;10.50;99.90
17202;DHT22;8717;53.588;10.176;2023-05-21T01:34:59;10.50;99.90
17202;DHT22;8717;53.588;10.176;2023-05-21T01:37:30;10.50;99.90
17202;DHT22;8717;53.588;10.176;2023-05-21T01:40:04;10.50;99.90
17202;DHT22;8717;53.588;10.176;2023-05-21T01:42:35;10.50;99.90
17202;DHT22;8717;53.588;10.176;2023-05-21T01:45:05;10.50;99.90
17202;DHT22;8717;53.588;10.176;2023-05-21T01:47:34;10.50;99.90
17202;DHT22;8717;53.588;10.176;2023-05-21T01:50:03;10.50;99.90
17202;DHT22;8717;53.588;10.176;2023-05-21T01:52:30;10.50;99.90
17202;DHT22;8717;53.588;10.176;2023-05-21T01:54:57;10.50;99.90
17202;DHT22;8717;53.588;10.176;2023-05-21T01:57:26;10.50;99.90
17202;DHT22;8717;53.588;10.176;2023-05-21T01:59:53;10.50;99.90
17202;DHT22;8717;53.588;10.176;2023-05-21T02:02:22;10.40;99.90
17202;DHT22;8717;53.588;10.176;2023-05-21T02:04:49;10.40;99.90
17202;DHT22;8717;53.588;10.176;2023-05-21T02:07:16;10.50;99.90
17202;DHT22;8717;53.588;10.176;2023-05-21T02:09:44;10.40;99.90
17202;DHT22;8717;53.588;10.176;2023-05-21T02:12:11;10.40;99.90
17202;DHT22;8717;53.588;10.176;2023-05-21T02:14:39;10.40;99.90
17202;DHT22;8717;53.588;10.176;2023-05-21T02:17:06;10.50;99.90
17202;DHT22;8717;53.588;10.176;2023-05-21T02:19:33;10.40;99.90
17202;DHT22;8717;53.588;10.176;2023-05-21T02:22:00;10.40;99.90
17202;DHT22;8717;53.588;10.176;2023-05-21T02:24:27;10.40;99.90
17202;DHT22;8717;53.588;10.176;2023-05-21T02:26:54;10.40;99.90
17202;DHT22;8717;53.588;10.176;2023-05-21T02:29:22;10.40;99.90
17202;DHT22;8717;53.588;10.176;2023-05-21T02:31:51;10.30;99.90
17202;DHT22;8717;53.588;10.176;2023-05-21T02:34:17;10.30;99.90
17202;DHT22;8717;53.588;10.176;2023-05-21T02:36:45;10.30;99.90
17202;DHT22;8717;53.588;10.176;2023-05-21T02:39:17;10.30;99.90
17202;DHT22;8717;53.588;10.176;2023-05-21T02:41:45;10.30;99.90
17202;DHT22;8717;53.588;10.176;2023-05-21T02:44:13;10.20;99.90
17202;DHT22;8717;53.588;10.176;2023-05-21T02:46:40;10.20;99.90
17202;DHT22;8717;53.588;10.176;2023-05-21T02:49:08;10.20;99.90
17202;DHT22;8717;53.588;10.176;2023-05-21T02:51:36;10.20;99.90
17202;DHT22;8717;53.588;10.176;2023-05-21T02:54:03;10.10;99.90
17202;DHT22;8717;53.588;10.176;2023-05-21T02:56:30;10.10;99.90
17202;DHT22;8717;53.588;10.176;2023-05-21T02:58:56;10.10;99.90
17202;DHT22;8717;53.588;10.176;2023-05-21T03:01:23;10.10;99.90
17202;DHT22;8717;53.588;10.176;2023-05-21T03:03:50;10.00;99.90
17202;DHT22;8717;53.588;10.176;2023-05-21T03:06:18;10.00;99.90
17202;DHT22;8717;53.588;10.176;2023-05-21T03:08:46;10.00;99.90
17202;DHT22;8717;53.588;10.176;2023-05-21T03:11:13;10.00;99.90
17202;DHT22;8717;53.588;10.176;2023-05-21T03:13:40;10.00;99.90
17202;DHT22;8717;53.588;10.176;2023-05-21T03:16:08;10.00;99.90
17202;DHT22;8717;53.588;10.176;2023-05-21T03:18:35;9.90;99.90
17202;DHT22;8717;53.588;10.176;2023-05-21T03:21:02;9.90;99.90
17202;DHT22;8717;53.588;10.176;2023-05-21T03:23:31;9.90;99.90
17202;DHT22;8717;53.588;10.176;2023-05-21T03:26:00;9.90;99.90
17202;DHT22;8717;53.588;10.176;2023-05-21T03:28:27;9.90;99.90
17202;DHT22;8717;53.588;10.176;2023-05-21T03:30:55;9.90;99.90
17202;DHT22;8717;53.588;10.176;2023-05-21T03:33:42;9.90;99.90
17202;DHT22;8717;53.588;10.176;2023-05-21T03:36:28;9.90;99.90
17202;DHT22;8717;53.588;10.176;2023-05-21T03:38:57;9.80;99.90
17202;DHT22;8717;53.588;10.176;2023-05-21T03:41:24;9.90;99.90
17202;DHT22;8717;53.588;10.176;2023-05-21T03:43:56;9.80;99.90
17202;DHT22;8717;53.588;10.176;2023-05-21T03:46:27;9.80;99.90
17202;DHT22;8717;53.588;10.176;2023-05-21T03:48:53;9.80;99.90
17202;DHT22;8717;53.588;10.176;2023-05-21T03:51:23;9.80;99.90
17202;DHT22;8717;53.588;10.176;2023-05-21T03:53:51;9.90;99.90
17202;DHT22;8717;53.588;10.176;2023-05-21T03:56:19;9.90;99.90
17202;DHT22;8717;53.588;10.176;2023-05-21T03:58:50;9.90;99.90
17202;DHT22;8717;53.588;10.176;2023-05-21T04:01:18;10.00;99.90
17202;DHT22;8717;53.588;10.176;2023-05-21T04:03:47;9.90;99.90
17202;DHT22;8717;53.588;10.176;2023-05-21T04:06:16;9.90;99.90
17202;DHT22;8717;53.588;10.176;2023-05-21T04:08:43;9.90;99.90
17202;DHT22;8717;53.588;10.176;2023-05-21T04:11:11;10.00;99.90
17202;DHT22;8717;53.588;10.176;2023-05-21T04:13:40;10.00;99.90
17202;DHT22;8717;53.588;10.176;2023-05-21T04:16:07;10.00;99.90
17202;DHT22;8717;53.588;10.176;2023-05-21T04:18:34;10.10;99.90
17202;DHT22;8717;53.588;10.176;2023-05-21T04:21:01;10.10;99.90
17202;DHT22;8717;53.588;10.176;2023-05-21T04:23:28;10.20;99.90
17202;DHT22;8717;53.588;10.176;2023-05-21T04:25:56;10.20;99.90
17202;DHT22;8717;53.588;10.176;2023-05-21T04:28:23;10.30;99.90
17202;DHT22;8717;53.588;10.176;2023-05-21T04:30:54;10.30;99.90
17202;DHT22;8717;53.588;10.176;2023-05-21T04:33:22;10.40;99.90
17202;DHT22;8717;53.588;10.176;2023-05-21T04:35:50;10.50;99.90
17202;DHT22;8717;53.588;10.176;2023-05-21T04:38:18;10.50;99.90
17202;DHT22;8717;53.588;10.176;2023-05-21T04:40:45;10.60;99.90
17202;DHT22;8717;53.588;10.176;2023-05-21T04:43:12;10.70;99.90
17202;DHT22;8717;53.588;10.176;2023-05-21T04:45:42;10.80;99.90
17202;DHT22;8717;53.588;10.176;2023-05-21T04:48:11;10.80;99.90
17202;DHT22;8717;53.588;10.176;2023-05-21T04:50:40;10.90;99.90
17202;DHT22;8717;53.588;10.176;2023-05-21T04:53:06;10.90;99.90
17202;DHT22;8717;53.588;10.176;2023-05-21T04:55:33;11.00;99.90
17202;DHT22;8717;53.588;10.176;2023-05-21T04:58:04;11.00;99.90
17202;DHT22;8717;53.588;10.176;2023-05-21T05:00:31;11.10;99.90
17202;DHT22;8717;53.588;10.176;2023-05-21T05:02:58;11.20;99.90
17202;DHT22;8717;53.588;10.176;2023-05-21T05:05:27;11.20;99.90
17202;DHT22;8717;53.588;10.176;2023-05-21T05:07:54;11.30;99.90
17202;DHT22;8717;53.588;10.176;2023-05-21T05:10:22;11.40;99.90
17202;DHT22;8717;53.588;10.176;2023-05-21T05:12:49;11.40;99.90
17202;DHT22;8717;53.588;10.176;2023-05-21T05:15:16;11.50;99.90
17202;DHT22;8717;53.588;10.176;2023-05-21T05:17:43;11.60;99.90
17202;DHT22;8717;53.588;10.176;2023-05-21T05:20:12;11.70;99.90
17202;DHT22;8717;53.588;10.176;2023-05-21T05:22:40;11.80;99.90
17202;DHT22;8717;53.588;10.176;2023-05-21T05:25:07;12.00;99.90
17202;DHT22;8717;53.588;10.176;2023-05-21T05:27:35;12.10;99.90
17202;DHT22;8717;53.588;10.176;2023-05-21T05:30:02;12.20;99.90
17202;DHT22;8717;53.588;10.176;2023-05-21T05:32:32;12.30;99.90
17202;DHT22;8717;53.588;10.176;2023-05-21T05:34:59;12.40;99.90
17202;DHT22;8717;53.588;10.176;2023-05-21T05:37:26;12.50;99.90
17202;DHT22;8717;53.588;10.176;2023-05-21T05:39:54;12.70;99.90
17202;DHT22;8717;53.588;10.176;2023-05-21T05:42:21;12.70;99.90
17202;DHT22;8717;53.588;10.176;2023-05-21T05:44:48;12.70;99.90
17202;DHT22;8717;53.588;10.176;2023-05-21T05:47:15;12.80;99.90
17202;DHT22;8717;53.588;10.176;2023-05-21T05:49:41;12.90;99.90
17202;DHT22;8717;53.588;10.176;2023-05-21T05:52:08;12.90;99.90
17202;DHT22;8717;53.588;10.176;2023-05-21T05:54:35;13.00;99.90
17202;DHT22;8717;53.588;10.176;2023-05-21T05:57:03;13.20;99.90
17202;DHT22;8717;53.588;10.176;2023-05-21T05:59:30;13.20;99.90
17202;DHT22;8717;53.588;10.176;2023-05-21T06:01:59;13.40;99.90
17202;DHT22;8717;53.588;10.176;2023-05-21T06:04:25;13.50;99.90
17202;DHT22;8717;53.588;10.176;2023-05-21T06:06:54;13.70;99.90
17202;DHT22;8717;53.588;10.176;2023-05-21T06:09:21;13.80;99.90
17202;DHT22;8717;53.588;10.176;2023-05-21T06:11:49;14.00;99.90
17202;DHT22;8717;53.588;10.176;2023-05-21T06:14:17;14.10;99.90
17202;DHT22;8717;53.588;10.176;2023-05-21T06:16:43;14.20;99.90
17202;DHT22;8717;53.588;10.176;2023-05-21T06:19:11;14.40;99.90
17202;DHT22;8717;53.588;10.176;2023-05-21T06:21:37;14.50;99.90
17202;DHT22;8717;53.588;10.176;2023-05-21T06:24:06;14.60;99.90
17202;DHT22;8717;53.588;10.176;2023-05-21T06:26:32;14.70;99.90
17202;DHT22;8717;53.588;10.176;2023-05-21T06:28:59;14.90;99.90
17202;DHT22;8717;53.588;10.176;2023-05-21T06:31:29;15.00;99.90
17202;DHT22;8717;53.588;10.176;2023-05-21T06:33:57;15.10;99.90
17202;DHT22;8717;53.588;10.176;2023-05-21T06:36:25;15.30;99.90
17202;DHT22;8717;53.588;10.176;2023-05-21T06:38:54;15.50;99.90
17202;DHT22;8717;53.588;10.176;2023-05-21T06:41:21;15.70;99.90
17202;DHT22;8717;53.588;10.176;2023-05-21T06:43:51;15.90;99.90
17202;DHT22;8717;53.588;10.176;2023-05-21T06:46:38;16.10;99.90
17202;DHT22;8717;53.588;10.176;2023-05-21T06:49:07;16.30;99.90
17202;DHT22;8717;53.588;10.176;2023-05-21T06:51:34;16.40;99.90
17202;DHT22;8717;53.588;10.176;2023-05-21T06:54:02;16.50;99.90
17202;DHT22;8717;53.588;10.176;2023-05-21T06:56:29;16.60;99.90
17202;DHT22;8717;53.588;10.176;2023-05-21T06:58:56;16.70;99.90
17202;DHT22;8717;53.588;10.176;2023-05-21T07:01:23;16.90;99.90
17202;DHT22;8717;53.588;10.176;2023-05-21T07:03:52;17.00;99.90
17202;DHT22;8717;53.588;10.176;2023-05-21T07:06:19;17.10;99.90
17202;DHT22;8717;53.588;10.176;2023-05-21T07:08:45;17.30;99.90
17202;DHT22;8717;53.588;10.176;2023-05-21T07:11:13;17.50;99.90
17202;DHT22;8717;53.588;10.176;2023-05-21T07:13:40;17.70;99.90
17202;DHT22;8717;53.588;10.176;2023-05-21T07:16:07;17.90;99.90
17202;DHT22;8717;53.588;10.176;2023-05-21T07:18:35;18.10;99.90
17202;DHT22;8717;53.588;10.176;2023-05-21T07:21:03;18.30;99.90
17202;DHT22;8717;53.588;10.176;2023-05-21T07:23:30;18.50;99.90
17202;DHT22;8717;53.588;10.176;2023-05-21T07:25:56;18.70;99.90
17202;DHT22;8717;53.588;10.176;2023-05-21T07:28:23;18.90;99.90
17202;DHT22;8717;53.588;10.176;2023-05-21T07:30:50;19.00;99.90
17202;DHT22;8717;53.588;10.176;2023-05-21T07:33:21;19.20;99.90
17202;DHT22;8717;53.588;10.176;2023-05-21T07:35:49;19.30;99.90
17202;DHT22;8717;53.588;10.176;2023-05-21T07:38:18;19.50;99.90
17202;DHT22;8717;53.588;10.176;2023-05-21T07:40:44;19.60;99.90
17202;DHT22;8717;53.588;10.176;2023-05-21T07:43:12;19.70;99.90
17202;DHT22;8717;53.588;10.176;2023-05-21T07:45:40;19.80;99.90
17202;DHT22;8717;53.588;10.176;2023-05-21T07:48:06;19.90;99.90
17202;DHT22;8717;53.588;10.176;2023-05-21T07:50:37;20.00;99.90
17202;DHT22;8717;53.588;10.176;2023-05-21T07:53:03;20.00;99.90
17202;DHT22;8717;53.588;10.176;2023-05-21T07:55:32;20.10;99.90
17202;DHT22;8717;53.588;10.176;2023-05-21T07:57:58;20.10;99.90
17202;DHT22;8717;53.588;10.176;2023-05-21T08:00:29;20.30;99.90
17202;DHT22;8717;53.588;10.176;2023-05-21T08:03:07;20.50;99.90
17202;DHT22;8717;53.588;10.176;2023-05-21T08:05:36;20.80;99.90
17202;DHT22;8717;53.588;10.176;2023-05-21T08:08:03;21.20;99.90
17202;DHT22;8717;53.588;10.176;2023-05-21T08:10:32;21.50;99.60
17202;DHT22;8717;53.588;10.176;2023-05-21T08:12:59;22.00;99.00
17202;DHT22;8717;53.588;10.176;2023-05-21T08:15:26;22.30;98.80
17202;DHT22;8717;53.588;10.176;2023-05-21T08:17:53;22.70;98.20
17202;DHT22;8717;53.588;10.176;2023-05-21T08:20:20;23.00;97.70
17202;DHT22;8717;53.588;10.176;2023-05-21T08:22:48;23.30;97.50
17202;DHT22;8717;53.588;10.176;2023-05-21T08:25:16;23.50;97.20
17202;DHT22;8717;53.588;10.176;2023-05-21T08:27:44;23.80;96.70
17202;DHT22;8717;53.588;10.176;2023-05-21T08:30:10;24.00;96.30
17202;DHT22;8717;53.588;10.176;2023-05-21T08:32:37;24.20;96.00
17202;DHT22;8717;53.588;10.176;2023-05-21T08:35:05;24.40;95.70
17202;DHT22;8717;53.588;10.176;2023-05-21T08:37:53;24.50;95.20
17202;DHT22;8717;53.588;10.176;2023-05-21T08:40:29;24.60;94.70
17202;DHT22;8717;53.588;10.176;2023-05-21T08:42:57;24.60;94.40
17202;DHT22;8717;53.588;10.176;2023-05-21T08:45:38;24.40;94.30
17202;DHT22;8717;53.588;10.176;2023-05-21T08:48:09;24.30;94.40
17202;DHT22;8717;53.588;10.176;2023-05-21T08:50:39;24.20;94.30
17202;DHT22;8717;53.588;10.176;2023-05-21T08:53:14;24.20;94.60
17202;DHT22;8717;53.588;10.176;2023-05-21T08:55:41;24.20;94.60
17202;DHT22;8717;53.588;10.176;2023-05-21T08:58:11;24.10;94.50
17202;DHT22;8717;53.588;10.176;2023-05-21T09:00:39;24.00;94.50
17202;DHT22;8717;53.588;10.176;2023-05-21T09:03:06;23.90;94.60
17202;DHT22;8717;53.588;10.176;2023-05-21T09:05:38;23.80;94.80
17202;DHT22;8717;53.588;10.176;2023-05-21T09:08:06;23.60;94.80
17202;DHT22;8717;53.588;10.176;2023-05-21T09:11:00;23.60;95.20
17202;DHT22;8717;53.588;10.176;2023-05-21T09:13:33;23.60;95.20
17202;DHT22;8717;53.588;10.176;2023-05-21T09:16:06;23.50;95.10
17202;DHT22;8717;53.588;10.176;2023-05-21T09:18:32;23.60;95.30
17202;DHT22;8717;53.588;10.176;2023-05-21T09:21:23;23.70;95.30
17202;DHT22;8717;53.588;10.176;2023-05-21T09:23:55;23.70;94.90
17202;DHT22;8717;53.588;10.176;2023-05-21T09:26:22;23.70;95.10
17202;DHT22;8717;53.588;10.176;2023-05-21T09:28:56;23.60;95.20
17202;DHT22;8717;53.588;10.176;2023-05-21T09:31:23;23.60;95.30
17202;DHT22;8717;53.588;10.176;2023-05-21T09:33:51;23.50;95.40
17202;DHT22;8717;53.588;10.176;2023-05-21T09:36:20;23.50;95.40
17202;DHT22;8717;53.588;10.176;2023-05-21T09:38:47;23.50;95.40
17202;DHT22;8717;53.588;10.176;2023-05-21T09:41:14;23.50;95.60
17202;DHT22;8717;53.588;10.176;2023-05-21T09:43:41;23.60;95.90
17202;DHT22;8717;53.588;10.176;2023-05-21T09:46:10;23.60;95.90
17202;DHT22;8717;53.588;10.176;2023-05-21T09:48:38;23.80;96.00
17202;DHT22;8717;53.588;10.176;2023-05-21T09:51:14;24.00;96.20
17202;DHT22;8717;53.588;10.176;2023-05-21T09:53:48;24.20;95.70
17202;DHT22;8717;53.588;10.176;2023-05-21T09:56:17;24.40;95.40
17202;DHT22;8717;53.588;10.176;2023-05-21T09:58:46;24.60;95.40
17202;DHT22;8717;53.588;10.176;2023-05-21T10:01:14;24.90;95.10
17202;DHT22;8717;53.588;10.176;2023-05-21T10:03:43;25.00;94.40
17202;DHT22;8717;53.588;10.176;2023-05-21T10:06:11;25.20;94.50
17202;DHT22;8717;53.588;10.176;2023-05-21T10:08:41;25.40;94.60
17202;DHT22;8717;53.588;10.176;2023-05-21T10:11:10;25.60;94.00
17202;DHT22;8717;53.588;10.176;2023-05-21T10:13:40;25.80;94.00
17202;DHT22;8717;53.588;10.176;2023-05-21T10:16:10;26.00;94.00
17202;DHT22;8717;53.588;10.176;2023-05-21T10:18:39;26.20;93.40
17202;DHT22;8717;53.588;10.176;2023-05-21T10:21:07;26.50;93.20
17202;DHT22;8717;53.588;10.176;2023-05-21T10:23:35;26.60;92.80
17202;DHT22;8717;53.588;10.176;2023-05-21T10:26:03;26.70;92.80
17202;DHT22;8717;53.588;10.176;2023-05-21T10:28:32;26.90;92.40
17202;DHT22;8717;53.588;10.176;2023-05-21T10:30:59;27.10;92.20
17202;DHT22;8717;53.588;10.176;2023-05-21T10:33:26;27.20;92.30
17202;DHT22;8717;53.588;10.176;2023-05-21T10:35:57;27.30;91.90
17202;DHT22;8717;53.588;10.176;2023-05-21T10:38:24;27.50;91.30
17202;DHT22;8717;53.588;10.176;2023-05-21T10:40:52;27.60;91.70
17202;DHT22;8717;53.588;10.176;2023-05-21T10:43:37;27.80;91.60
17202;DHT22;8717;53.588;10.176;2023-05-21T10:46:34;28.00;90.90
17202;DHT22;8717;53.588;10.176;2023-05-21T10:49:17;28.30;90.60
17202;DHT22;8717;53.588;10.176;2023-05-21T10:51:56;28.60;90.60
17202;DHT22;8717;53.588;10.176;2023-05-21T10:54:42;28.90;89.70
17202;DHT22;8717;53.588;10.176;2023-05-21T10:57:19;29.20;88.80
17202;DHT22;8717;53.588;10.176;2023-05-21T10:59:49;29.40;88.60
17202;DHT22;8717;53.588;10.176;2023-05-21T11:02:18;29.60;86.30
17202;DHT22;8717;53.588;10.176;2023-05-21T11:04:47;29.60;85.10
17202;DHT22;8717;53.588;10.176;2023-05-21T11:07:22;29.60;85.30
17202;DHT22;8717;53.588;10.176;2023-05-21T11:09:49;29.60;85.90
17202;DHT22;8717;53.588;10.176;2023-05-21T11:12:15;29.70;86.20
17202;DHT22;8717;53.588;10.176;2023-05-21T11:14:55;29.90;85.70
17202;DHT22;8717;53.588;10.176;2023-05-21T11:17:36;30.10;84.40
17202;DHT22;8717;53.588;10.176;2023-05-21T11:20:07;30.30;83.90
17202;DHT22;8717;53.588;10.176;2023-05-21T11:22:37;30.40;82.70
17202;DHT22;8717;53.588;10.176;2023-05-21T11:25:04;30.50;81.60
17202;DHT22;8717;53.588;10.176;2023-05-21T11:27:32;30.50;82.00
17202;DHT22;8717;53.588;10.176;2023-05-21T11:30:01;30.50;80.70
17202;DHT22;8717;53.588;10.176;2023-05-21T11:32:28;30.60;81.30
17202;DHT22;8717;53.588;10.176;2023-05-21T11:34:59;30.60;80.30
17202;DHT22;8717;53.588;10.176;2023-05-21T11:37:30;30.60;80.60
17202;DHT22;8717;53.588;10.176;2023-05-21T11:40:24;30.60;80.00
17202;DHT22;8717;53.588;10.176;2023-05-21T11:42:53;30.60;79.90
17202;DHT22;8717;53.588;10.176;2023-05-21T11:45:22;30.60;79.40
17202;DHT22;8717;53.588;10.176;2023-05-21T11:47:49;30.50;79.70
17202;DHT22;8717;53.588;10.176;2023-05-21T11:50:17;30.50;79.40
17202;DHT22;8717;53.588;10.176;2023-05-21T11:52:44;30.40;79.80
17202;DHT22;8717;53.588;10.176;2023-05-21T11:55:11;30.50;78.90
17202;DHT22;8717;53.588;10.176;2023-05-21T11:57:41;30.40;79.30
17202;DHT22;8717;53.588;10.176;2023-05-21T12:00:14;30.40;78.80
17202;DHT22;8717;53.588;10.176;2023-05-21T12:02:47;30.40;79.50
17202;DHT22;8717;53.588;10.176;2023-05-21T12:05:13;30.40;79.00
17202;DHT22;8717;53.588;10.176;2023-05-21T12:07:41;30.60;79.40
17202;DHT22;8717;53.588;10.176;2023-05-21T12:10:08;30.60;78.80
17202;DHT22;8717;53.588;10.176;2023-05-21T12:12:35;30.60;78.10
17202;DHT22;8717;53.588;10.176;2023-05-21T12:15:04;30.60;78.30
17202;DHT22;8717;53.588;10.176;2023-05-21T12:17:31;30.50;77.80
17202;DHT22;8717;53.588;10.176;2023-05-21T12:19:58;30.50;77.80
17202;DHT22;8717;53.588;10.176;2023-05-21T12:22:26;30.30;78.20
17202;DHT22;8717;53.588;10.176;2023-05-21T12:24:54;30.20;78.60
17202;DHT22;8717;53.588;10.176;2023-05-21T12:27:22;30.10;78.50
17202;DHT22;8717;53.588;10.176;2023-05-21T12:29:50;30.00;78.80
17202;DHT22;8717;53.588;10.176;2023-05-21T12:32:19;29.90;79.50
17202;DHT22;8717;53.588;10.176;2023-05-21T12:34:47;29.90;80.30
17202;DHT22;8717;53.588;10.176;2023-05-21T12:37:15;29.90;80.20
17202;DHT22;8717;53.588;10.176;2023-05-21T12:39:43;30.00;80.50
17202;DHT22;8717;53.588;10.176;2023-05-21T12:42:10;30.20;80.70
17202;DHT22;8717;53.588;10.176;2023-05-21T12:44:38;30.20;79.50
17202;DHT22;8717;53.588;10.176;2023-05-21T12:47:05;30.30;79.80
17202;DHT22;8717;53.588;10.176;2023-05-21T12:49:35;30.40;79.00
17202;DHT22;8717;53.588;10.176;2023-05-21T12:52:03;30.40;78.80
17202;DHT22;8717;53.588;10.176;2023-05-21T12:54:31;30.30;78.20
17202;DHT22;8717;53.588;10.176;2023-05-21T12:57:05;30.10;77.80
17202;DHT22;8717;53.588;10.176;2023-05-21T12:59:48;29.90;78.20
17202;DHT22;8717;53.588;10.176;2023-05-21T13:02:19;29.70;78.60
17202;DHT22;8717;53.588;10.176;2023-05-21T13:04:47;29.50;78.80
17202;DHT22;8717;53.588;10.176;2023-05-21T13:07:15;29.30;79.10
17202;DHT22;8717;53.588;10.176;2023-05-21T13:09:42;29.10;79.20
17202;DHT22;8717;53.588;10.176;2023-05-21T13:12:10;28.80;79.70
17202;DHT22;8717;53.588;10.176;2023-05-21T13:14:37;28.50;80.00
17202;DHT22;8717;53.588;10.176;2023-05-21T13:17:04;28.30;80.50
17202;DHT22;8717;53.588;10.176;2023-05-21T13:19:31;28.10;81.20
17202;DHT22;8717;53.588;10.176;2023-05-21T13:21:59;27.90;82.30
17202;DHT22;8717;53.588;10.176;2023-05-21T13:24:26;27.70;83.00
17202;DHT22;8717;53.588;10.176;2023-05-21T13:26:52;27.70;83.20
17202;DHT22;8717;53.588;10.176;2023-05-21T13:29:19;27.60;83.60
17202;DHT22;8717;53.588;10.176;2023-05-21T13:31:46;27.60;83.70
17202;DHT22;8717;53.588;10.176;2023-05-21T13:34:12;27.70;84.40
17202;DHT22;8717;53.588;10.176;2023-05-21T13:36:39;27.70;83.90
17202;DHT22;8717;53.588;10.176;2023-05-21T13:39:07;27.60;84.00
17202;DHT22;8717;53.588;10.176;2023-05-21T13:41:34;27.50;83.80
17202;DHT22;8717;53.588;10.176;2023-05-21T13:44:02;27.50;84.20
17202;DHT22;8717;53.588;10.176;2023-05-21T13:46:29;27.40;84.50
17202;DHT22;8717;53.588;10.176;2023-05-21T13:48:55;27.30;85.10
17202;DHT22;8717;53.588;10.176;2023-05-21T13:51:22;27.20;85.10
17202;DHT22;8717;53.588;10.176;2023-05-21T13:53:49;27.20;85.40
17202;DHT22;8717;53.588;10.176;2023-05-21T13:56:17;27.10;85.60
17202;DHT22;8717;53.588;10.176;2023-05-21T13:58:45;27.10;85.70
17202;DHT22;8717;53.588;10.176;2023-05-21T14:01:11;27.00;85.30
17202;DHT22;8717;53.588;10.176;2023-05-21T14:03:38;26.80;85.90
17202;DHT22;8717;53.588;10.176;2023-05-21T14:06:05;26.80;86.00
17202;DHT22;8717;53.588;10.176;2023-05-21T14:08:32;26.70;86.60
17202;DHT22;8717;53.588;10.176;2023-05-21T14:10:59;26.60;87.00
17202;DHT22;8717;53.588;10.176;2023-05-21T14:13:27;26.70;87.60
17202;DHT22;8717;53.588;10.176;2023-05-21T14:15:54;26.60;87.10
17202;DHT22;8717;53.588;10.176;2023-05-21T14:18:21;26.60;86.80
17202;DHT22;8717;53.588;10.176;2023-05-21T14:20:47;26.60;86.40
17202;DHT22;8717;53.588;10.176;2023-05-21T14:23:14;26.60;86.70
17202;DHT22;8717;53.588;10.176;2023-05-21T14:25:41;26.50;86.70
17202;DHT22;8717;53.588;10.176;2023-05-21T14:28:07;26.50;86.70
17202;DHT22;8717;53.588;10.176;2023-05-21T14:30:35;26.50;86.60
17202;DHT22;8717;53.588;10.176;2023-05-21T14:33:02;26.50;86.70
17202;DHT22;8717;53.588;10.176;2023-05-21T14:35:29;26.50;87.00
17202;DHT22;8717;53.588;10.176;2023-05-21T14:37:56;26.50;86.90
17202;DHT22;8717;53.588;10.176;2023-05-21T14:40:22;26.50;86.70
17202;DHT22;8717;53.588;10.176;2023-05-21T14:42:49;26.50;86.50
17202;DHT22;8717;53.588;10.176;2023-05-21T14:45:17;26.50;86.40
17202;DHT22;8717;53.588;10.176;2023-05-21T14:47:45;26.50;86.10
17202;DHT22;8717;53.588;10.176;2023-05-21T14:50:14;26.40;86.00
17202;DHT22;8717;53.588;10.176;2023-05-21T14:52:41;26.30;87.10
17202;DHT22;8717;53.588;10.176;2023-05-21T14:55:08;26.20;87.10
17202;DHT22;8717;53.588;10.176;2023-05-21T14:57:36;26.10;87.40
17202;DHT22;8717;53.588;10.176;2023-05-21T15:00:04;26.10;87.50
17202;DHT22;8717;53.588;10.176;2023-05-21T15:02:31;26.10;87.90
17202;DHT22;8717;53.588;10.176;2023-05-21T15:04:59;26.10;87.90
17202;DHT22;8717;53.588;10.176;2023-05-21T15:07:26;26.10;88.00
17202;DHT22;8717;53.588;10.176;2023-05-21T15:09:52;26.10;87.90
17202;DHT22;8717;53.588;10.176;2023-05-21T15:12:19;26.10;87.90
17202;DHT22;8717;53.588;10.176;2023-05-21T15:14:46;26.00;88.10
17202;DHT22;8717;53.588;10.176;2023-05-21T15:17:13;26.00;88.20
17202;DHT22;8717;53.588;10.176;2023-05-21T15:19:40;26.00;88.50
17202;DHT22;8717;53.588;10.176;2023-05-21T15:22:08;25.90;88.80
17202;DHT22;8717;53.588;10.176;2023-05-21T15:24:35;25.90;88.90
17202;DHT22;8717;53.588;10.176;2023-05-21T15:27:01;25.90;89.30
17202;DHT22;8717;53.588;10.176;2023-05-21T15:29:28;25.90;89.70
17202;DHT22;8717;53.588;10.176;2023-05-21T15:31:55;25.80;89.30
17202;DHT22;8717;53.588;10.176;2023-05-21T15:34:21;25.80;89.40
17202;DHT22;8717;53.588;10.176;2023-05-21T15:36:48;25.80;89.80
17202;DHT22;8717;53.588;10.176;2023-05-21T15:39:16;25.80;90.10
17202;DHT22;8717;53.588;10.176;2023-05-21T15:41:43;25.70;90.00